sensor_id;sensor_type;location;lat;lon;timestamp;temperature;humidity
12268;DHT22;6196;48.398;11.736;2023-09-12T00:02:15;17.70;99.90
12268;DHT22;6196;48.398;11.736;2023-09-12T00:04:42;17.60;99.90
12268;DHT22;6196;48.398;11.736;2023-09-12T00:07:09;17.60;99.90
12268;DHT22;6196;48.398;11.736;2023-09-12T00:09:36;17.50;99.90
12268;DHT22;6196;48.398;11.736;2023-09-12T00:12:03;17.50;99.90
12268;DHT22;6196;48.398;11.736;2023-09-12T00:14:30;17.50;99.90
12268;DHT22;6196;48.398;11.736;2023-09-12T00:16:57;17.50;99.90
12268;DHT22;6196;48.398;11.736;2023-09-12T00:19:24;17.50;99.90
12268;DHT22;6196;48.398;11.736;2023-09-12T00:21:51;17.40;99.90
12268;DHT22;6196;48.398;11.736;2023-09-12T00:24:19;17.40;99.90
12268;DHT22;6196;48.398;11.736;2023-09-12T00:26:46;17.40;99.90
12268;DHT22;6196;48.398;11.736;2023-09-12T00:29:17;17.30;99.90
12268;DHT22;6196;48.398;11.736;2023-09-12T00:31:44;17.30;99.90
12268;DHT22;6196;48.398;11.736;2023-09-12T00:34:16;17.30;99.90
12268;DHT22;6196;48.398;11.736;2023-09-12T00:36:44;17.30;99.90
12268;DHT22;6196;48.398;11.736;2023-09-12T00:39:11;17.30;99.90
12268;DHT22;6196;48.398;11.736;2023-09-12T00:41:38;17.20;99.90
12268;DHT22;6196;48.398;11.736;2023-09-12T00:44:05;17.20;99.90
12268;DHT22;6196;48.398;11.736;2023-09-12T00:46:32;17.10;99.90
12268;DHT22;6196;48.398;11.736;2023-09-12T00:49:02;17.00;99.90
12268;DHT22;6196;48.398;11.736;2023-09-12T00:51:31;17.00;99.90
12268;DHT22;6196;48.398;11.736;2023-09-12T00:53:59;16.90;99.90
12268;DHT22;6196;48.398;11.736;2023-09-12T00:56:26;17.00;99.90
12268;DHT22;6196;48.398;11.736;2023-09-12T00:58:55;16.90;99.90
12268;DHT22;6196;48.398;11.736;2023-09-12T01:01:23;16.90;99.90
12268;DHT22;6196;48.398;11.736;2023-09-12T01:03:51;16.90;99.90
12268;DHT22;6196;48.398;11.736;2023-09-12T01:06:23;16.90;99.90
12268;DHT22;6196;48.398;11.736;2023-09-12T01:08:53;16.80;99.90
12268;DHT22;6196;48.398;11.736;2023-09-12T01:11:20;16.70;99.90
12268;DHT22;6196;48.398;11.736;2023-09-12T01:13:47;16.60;99.90
12268;DHT22;6196;48.398;11.736;2023-09-12T01:16:14;16.60;99.90
12268;DHT22;6196;48.398;11.736;2023-09-12T01:18:41;16.60;99.90
12268;DHT22;6196;48.398;11.736;2023-09-12T01:29:16;16.50;99.90
12268;DHT22;6196;48.398;11.736;2023-09-12T01:31:46;16.50;99.90
12268;DHT22;6196;48.398;11.736;2023-09-12T01:34:13;16.50;99.90
12268;DHT22;6196;48.398;11.736;2023-09-12T01:36:40;16.40;99.90
12268;DHT22;6196;48.398;11.736;2023-09-12T01:39:08;16.40;99.90
12268;DHT22;6196;48.398;11.736;2023-09-12T01:41:39;16.40;99.90
12268;DHT22;6196;48.398;11.736;2023-09-12T01:44:08;16.40;99.90
12268;DHT22;6196;48.398;11.736;2023-09-12T01:46:37;16.30;99.90
12268;DHT22;6196;48.398;11.736;2023-09-12T01:49:05;16.30;99.90
12268;DHT22;6196;48.398;11.736;2023-09-12T01:51:35;16.30;99.90
12268;DHT22;6196;48.398;11.736;2023-09-12T01:54:04;16.30;99.90
12268;DHT22;6196;48.398;11.736;2023-09-12T01:56:31;16.20;99.90
12268;DHT22;6196;48.398;11.736;2023-09-12T01:58:59;16.30;99.90
12268;DHT22;6196;48.398;11.736;2023-09-12T02:01:26;16.30;99.90
12268;DHT22;6196;48.398;11.736;2023-09-12T02:03:54;16.30;99.90
12268;DHT22;6196;48.398;11.736;2023-09-12T02:06:21;16.20;99.90
12268;DHT22;6196;48.398;11.736;2023-09-12T02:08:48;16.10;99.90
12268;DHT22;6196;48.398;11.736;2023-09-12T02:11:14;16.10;99.90
12268;DHT22;6196;48.398;11.736;2023-09-12T02:13:41;16.10;99.90
12268;DHT22;6196;48.398;11.736;2023-09-12T02:16:08;16.10;99.90
12268;DHT22;6196;48.398;11.736;2023-09-12T02:18:35;16.10;99.90
12268;DHT22;6196;48.398;11.736;2023-09-12T02:21:03;16.10;99.90
12268;DHT22;6196;48.398;11.736;2023-09-12T02:23:30;16.10;99.90
12268;DHT22;6196;48.398;11.736;2023-09-12T02:25:56;16.10;99.90
12268;DHT22;6196;48.398;11.736;2023-09-12T02:28:23;16.00;99.90
12268;DHT22;6196;48.398;11.736;2023-09-12T02:30:51;16.00;99.90
12268;DHT22;6196;48.398;11.736;2023-09-12T02:33:18;16.00;99.90
12268;DHT22;6196;48.398;11.736;2023-09-12T02:35:45;16.00;99.90
12268;DHT22;6196;48.398;11.736;2023-09-12T02:38:13;16.00;99.90
12268;DHT22;6196;48.398;11.736;2023-09-12T02:40:40;15.90;99.90
12268;DHT22;6196;48.398;11.736;2023-09-12T02:43:07;15.80;99.90
12268;DHT22;6196;48.398;11.736;2023-09-12T02:45:34;15.80;99.90
12268;DHT22;6196;48.398;11.736;2023-09-12T02:48:01;15.80;99.90
12268;DHT22;6196;48.398;11.736;2023-09-12T02:50:28;15.80;99.90
12268;DHT22;6196;48.398;11.736;2023-09-12T02:52:55;15.90;99.90
12268;DHT22;6196;48.398;11.736;2023-09-12T02:55:22;15.80;99.90
12268;DHT22;6196;48.398;11.736;2023-09-12T02:57:49;15.80;99.90
12268;DHT22;6196;48.398;11.736;2023-09-12T03:00:16;15.70;99.90
12268;DHT22;6196;48.398;11.736;2023-09-12T03:02:43;15.70;99.90
12268;DHT22;6196;48.398;11.736;2023-09-12T03:05:10;15.70;99.90
12268;DHT22;6196;48.398;11.736;2023-09-12T03:07:37;15.70;99.90
12268;DHT22;6196;48.398;11.736;2023-09-12T03:10:04;15.70;99.90
12268;DHT22;6196;48.398;11.736;2023-09-12T03:12:31;15.70;99.90
12268;DHT22;6196;48.398;11.736;2023-09-12T03:14:58;15.70;99.90
12268;DHT22;6196;48.398;11.736;2023-09-12T03:17:25;15.70;99.90
12268;DHT22;6196;48.398;11.736;2023-09-12T03:19:54;15.60;99.90
12268;DHT22;6196;48.398;11.736;2023-09-12T03:22:21;15.60;99.90
12268;DHT22;6196;48.398;11.736;2023-09-12T03:24:48;15.50;99.90
12268;DHT22;6196;48.398;11.736;2023-09-12T03:27:15;15.50;99.90
12268;DHT22;6196;48.398;11.736;2023-09-12T03:29:42;15.40;99.90
12268;DHT22;6196;48.398;11.736;2023-09-12T03:32:13;15.40;99.90
12268;DHT22;6196;48.398;11.736;2023-09-12T03:34:40;15.50;99.90
12268;DHT22;6196;48.398;11.736;2023-09-12T03:37:07;15.40;99.90
12268;DHT22;6196;48.398;11.736;2023-09-12T03:39:35;15.50;99.90
12268;DHT22;6196;48.398;11.736;2023-09-12T03:42:02;15.50;99.90
12268;DHT22;6196;48.398;11.736;2023-09-12T03:44:29;15.50;99.90
12268;DHT22;6196;48.398;11.736;2023-09-12T03:46:56;15.50;99.90
12268;DHT22;6196;48.398;11.736;2023-09-12T03:49:24;15.50;99.90
12268;DHT22;6196;48.398;11.736;2023-09-12T03:51:51;15.40;99.90
12268;DHT22;6196;48.398;11.736;2023-09-12T03:54:18;15.40;99.90
12268;DHT22;6196;48.398;11.736;2023-09-12T03:56:45;15.30;99.90
12268;DHT22;6196;48.398;11.736;2023-09-12T03:59:12;15.30;99.90
12268;DHT22;6196;48.398;11.736;2023-09-12T04:01:39;15.30;99.90
12268;DHT22;6196;48.398;11.736;2023-09-12T04:04:06;15.20;99.90
12268;DHT22;6196;48.398;11.736;2023-09-12T04:06:33;15.10;99.90
12268;DHT22;6196;48.398;11.736;2023-09-12T04:09:00;15.10;99.90
12268;DHT22;6196;48.398;11.736;2023-09-12T04:11:27;15.10;99.90
12268;DHT22;6196;48.398;11.736;2023-09-12T04:14:13;15.10;99.90
12268;DHT22;6196;48.398;11.736;2023-09-12T04:16:41;15.10;99.90
12268;DHT22;6196;48.398;11.736;2023-09-12T04:19:08;15.10;99.90
12268;DHT22;6196;48.398;11.736;2023-09-12T04:21:35;15.10;99.90
12268;DHT22;6196;48.398;11.736;2023-09-12T04:24:02;15.10;99.90
12268;DHT22;6196;48.398;11.736;2023-09-12T04:26:29;15.10;99.90
12268;DHT22;6196;48.398;11.736;2023-09-12T04:28:56;15.10;99.90
12268;DHT22;6196;48.398;11.736;2023-09-12T04:31:23;15.10;99.90
12268;DHT22;6196;48.398;11.736;2023-09-12T04:33:53;14.90;99.90
12268;DHT22;6196;48.398;11.736;2023-09-12T04:36:20;14.90;99.90
12268;DHT22;6196;48.398;11.736;2023-09-12T04:38:48;14.90;99.90
12268;DHT22;6196;48.398;11.736;2023-09-12T04:41:14;14.90;99.90
12268;DHT22;6196;48.398;11.736;2023-09-12T04:43:44;14.90;99.90
12268;DHT22;6196;48.398;11.736;2023-09-12T04:46:12;14.90;99.90
12268;DHT22;6196;48.398;11.736;2023-09-12T04:48:39;14.80;99.90
12268;DHT22;6196;48.398;11.736;2023-09-12T04:51:08;14.80;99.90
12268;DHT22;6196;48.398;11.736;2023-09-12T04:53:35;14.90;99.90
12268;DHT22;6196;48.398;11.736;2023-09-12T04:56:02;14.90;99.90
12268;DHT22;6196;48.398;11.736;2023-09-12T04:58:30;14.90;99.90
12268;DHT22;6196;48.398;11.736;2023-09-12T05:00:57;15.00;99.90
12268;DHT22;6196;48.398;11.736;2023-09-12T05:03:24;15.00;99.90
12268;DHT22;6196;48.398;11.736;2023-09-12T05:05:53;15.00;99.90
12268;DHT22;6196;48.398;11.736;2023-09-12T05:08:20;15.10;99.90
12268;DHT22;6196;48.398;11.736;2023-09-12T05:10:47;15.20;99.90
12268;DHT22;6196;48.398;11.736;2023-09-12T05:13:14;15.20;99.90
12268;DHT22;6196;48.398;11.736;2023-09-12T05:15:41;15.10;99.90
12268;DHT22;6196;48.398;11.736;2023-09-12T05:18:08;15.10;99.90
12268;DHT22;6196;48.398;11.736;2023-09-12T05:20:35;15.00;99.90
12268;DHT22;6196;48.398;11.736;2023-09-12T05:23:02;15.00;99.90
12268;DHT22;6196;48.398;11.736;2023-09-12T05:25:30;15.10;99.90
12268;DHT22;6196;48.398;11.736;2023-09-12T05:27:56;15.10;99.90
12268;DHT22;6196;48.398;11.736;2023-09-12T05:30:24;15.20;99.90
12268;DHT22;6196;48.398;11.736;2023-09-12T05:32:52;15.20;99.90
12268;DHT22;6196;48.398;11.736;2023-09-12T05:35:19;15.30;99.90
12268;DHT22;6196;48.398;11.736;2023-09-12T05:37:49;15.30;99.90
12268;DHT22;6196;48.398;11.736;2023-09-12T05:40:17;15.40;99.90
12268;DHT22;6196;48.398;11.736;2023-09-12T05:42:45;15.40;99.90
12268;DHT22;6196;48.398;11.736;2023-09-12T05:45:12;15.50;99.90
12268;DHT22;6196;48.398;11.736;2023-09-12T05:47:39;15.60;99.90
12268;DHT22;6196;48.398;11.736;2023-09-12T05:50:06;15.70;99.90
12268;DHT22;6196;48.398;11.736;2023-09-12T05:52:33;15.80;99.90
12268;DHT22;6196;48.398;11.736;2023-09-12T05:55:01;15.90;99.90
12268;DHT22;6196;48.398;11.736;2023-09-12T05:57:28;16.10;99.90
12268;DHT22;6196;48.398;11.736;2023-09-12T05:59:55;16.20;99.90
12268;DHT22;6196;48.398;11.736;2023-09-12T06:02:22;16.40;99.90
12268;DHT22;6196;48.398;11.736;2023-09-12T06:04:48;16.50;99.90
12268;DHT22;6196;48.398;11.736;2023-09-12T06:07:16;16.80;99.90
12268;DHT22;6196;48.398;11.736;2023-09-12T06:09:43;16.90;99.90
12268;DHT22;6196;48.398;11.736;2023-09-12T06:12:10;17.20;99.90
12268;DHT22;6196;48.398;11.736;2023-09-12T06:14:37;17.40;99.90
12268;DHT22;6196;48.398;11.736;2023-09-12T06:17:04;17.70;99.90
12268;DHT22;6196;48.398;11.736;2023-09-12T06:19:31;18.10;99.90
12268;DHT22;6196;48.398;11.736;2023-09-12T06:21:57;18.30;99.90
12268;DHT22;6196;48.398;11.736;2023-09-12T06:24:25;18.60;99.90
12268;DHT22;6196;48.398;11.736;2023-09-12T06:26:52;18.70;99.90
12268;DHT22;6196;48.398;11.736;2023-09-12T06:29:19;19.00;99.90
12268;DHT22;6196;48.398;11.736;2023-09-12T06:31:46;19.20;99.90
12268;DHT22;6196;48.398;11.736;2023-09-12T06:34:13;19.30;99.90
12268;DHT22;6196;48.398;11.736;2023-09-12T06:36:40;19.50;99.90
12268;DHT22;6196;48.398;11.736;2023-09-12T06:39:11;19.80;99.90
12268;DHT22;6196;48.398;11.736;2023-09-12T06:41:38;19.90;99.90
12268;DHT22;6196;48.398;11.736;2023-09-12T06:44:05;20.00;99.90
12268;DHT22;6196;48.398;11.736;2023-09-12T06:46:33;20.00;99.90
12268;DHT22;6196;48.398;11.736;2023-09-12T06:49:04;19.90;99.90
12268;DHT22;6196;48.398;11.736;2023-09-12T06:51:31;19.50;99.90
12268;DHT22;6196;48.398;11.736;2023-09-12T06:54:04;19.60;99.90
12268;DHT22;6196;48.398;11.736;2023-09-12T06:56:31;20.00;99.90
12268;DHT22;6196;48.398;11.736;2023-09-12T06:58:58;20.30;99.90
12268;DHT22;6196;48.398;11.736;2023-09-12T07:01:26;20.60;99.90
12268;DHT22;6196;48.398;11.736;2023-09-12T07:03:53;20.80;99.90
12268;DHT22;6196;48.398;11.736;2023-09-12T07:06:21;21.10;99.90
12268;DHT22;6196;48.398;11.736;2023-09-12T07:08:49;21.30;99.90
12268;DHT22;6196;48.398;11.736;2023-09-12T07:11:16;21.50;99.90
12268;DHT22;6196;48.398;11.736;2023-09-12T07:13:43;21.80;99.90
12268;DHT22;6196;48.398;11.736;2023-09-12T07:16:11;22.00;99.90
12268;DHT22;6196;48.398;11.736;2023-09-12T07:18:38;21.90;99.90
12268;DHT22;6196;48.398;11.736;2023-09-12T07:21:05;22.20;99.90
12268;DHT22;6196;48.398;11.736;2023-09-12T07:23:33;22.40;99.90
12268;DHT22;6196;48.398;11.736;2023-09-12T07:26:00;22.80;99.90
12268;DHT22;6196;48.398;11.736;2023-09-12T07:28:27;22.50;99.90
12268;DHT22;6196;48.398;11.736;2023-09-12T07:30:55;20.90;99.90
12268;DHT22;6196;48.398;11.736;2023-09-12T07:33:22;20.40;99.90
12268;DHT22;6196;48.398;11.736;2023-09-12T07:35:52;20.50;99.90
12268;DHT22;6196;48.398;11.736;2023-09-12T07:38:21;21.20;99.90
12268;DHT22;6196;48.398;11.736;2023-09-12T07:40:48;21.30;99.90
12268;DHT22;6196;48.398;11.736;2023-09-12T07:43:15;21.70;99.90
12268;DHT22;6196;48.398;11.736;2023-09-12T07:45:43;21.90;99.90
12268;DHT22;6196;48.398;11.736;2023-09-12T07:48:10;22.40;99.90
12268;DHT22;6196;48.398;11.736;2023-09-12T07:50:40;21.80;99.90
12268;DHT22;6196;48.398;11.736;2023-09-12T07:53:07;22.50;99.90
12268;DHT22;6196;48.398;11.736;2023-09-12T07:55:38;22.70;99.90
12268;DHT22;6196;48.398;11.736;2023-09-12T07:58:13;22.10;99.90
12268;DHT22;6196;48.398;11.736;2023-09-12T08:00:41;22.60;99.90
12268;DHT22;6196;48.398;11.736;2023-09-12T08:03:08;23.30;99.90
12268;DHT22;6196;48.398;11.736;2023-09-12T08:05:36;24.10;99.90
12268;DHT22;6196;48.398;11.736;2023-09-12T08:08:03;24.10;99.90
12268;DHT22;6196;48.398;11.736;2023-09-12T08:10:30;24.60;99.90
12268;DHT22;6196;48.398;11.736;2023-09-12T08:12:57;25.30;99.90
12268;DHT22;6196;48.398;11.736;2023-09-12T08:15:24;24.70;99.90
12268;DHT22;6196;48.398;11.736;2023-09-12T08:17:51;25.00;99.90
12268;DHT22;6196;48.398;11.736;2023-09-12T08:20:20;25.80;99.90
12268;DHT22;6196;48.398;11.736;2023-09-12T08:22:47;25.80;99.90
12268;DHT22;6196;48.398;11.736;2023-09-12T08:25:15;25.70;99.90
12268;DHT22;6196;48.398;11.736;2023-09-12T08:27:43;26.30;99.90
12268;DHT22;6196;48.398;11.736;2023-09-12T08:30:12;26.70;99.90
12268;DHT22;6196;48.398;11.736;2023-09-12T08:32:40;26.90;99.90
12268;DHT22;6196;48.398;11.736;2023-09-12T08:35:14;27.20;99.90
12268;DHT22;6196;48.398;11.736;2023-09-12T08:37:42;27.80;99.90
12268;DHT22;6196;48.398;11.736;2023-09-12T08:40:10;28.10;99.90
12268;DHT22;6196;48.398;11.736;2023-09-12T08:42:40;28.70;99.90
12268;DHT22;6196;48.398;11.736;2023-09-12T08:45:14;28.30;99.90
12268;DHT22;6196;48.398;11.736;2023-09-12T08:47:49;28.10;99.90
12268;DHT22;6196;48.398;11.736;2023-09-12T08:50:17;28.60;99.90
12268;DHT22;6196;48.398;11.736;2023-09-12T08:52:46;28.00;99.90
12268;DHT22;6196;48.398;11.736;2023-09-12T08:55:32;27.90;99.90
12268;DHT22;6196;48.398;11.736;2023-09-12T08:58:03;27.90;99.90
12268;DHT22;6196;48.398;11.736;2023-09-12T09:00:31;27.80;99.90
12268;DHT22;6196;48.398;11.736;2023-09-12T09:02:58;27.40;99.90
12268;DHT22;6196;48.398;11.736;2023-09-12T09:05:27;27.30;99.90
12268;DHT22;6196;48.398;11.736;2023-09-12T09:07:56;27.90;99.90
12268;DHT22;6196;48.398;11.736;2023-09-12T09:10:23;28.30;99.90
12268;DHT22;6196;48.398;11.736;2023-09-12T09:13:12;28.90;99.90
12268;DHT22;6196;48.398;11.736;2023-09-12T09:15:39;29.00;99.90
12268;DHT22;6196;48.398;11.736;2023-09-12T09:18:09;29.30;99.90
12268;DHT22;6196;48.398;11.736;2023-09-12T09:20:39;29.80;99.90
12268;DHT22;6196;48.398;11.736;2023-09-12T09:23:09;29.80;99.90
12268;DHT22;6196;48.398;11.736;2023-09-12T09:25:40;29.80;99.90
12268;DHT22;6196;48.398;11.736;2023-09-12T09:28:21;29.70;99.90
12268;DHT22;6196;48.398;11.736;2023-09-12T09:30:50;29.50;99.90
12268;DHT22;6196;48.398;11.736;2023-09-12T09:33:18;28.40;99.90
12268;DHT22;6196;48.398;11.736;2023-09-12T09:35:48;27.80;99.90
12268;DHT22;6196;48.398;11.736;2023-09-12T09:38:19;28.00;99.90
12268;DHT22;6196;48.398;11.736;2023-09-12T09:40:46;28.70;99.90
12268;DHT22;6196;48.398;11.736;2023-09-12T09:43:20;29.20;99.90
12268;DHT22;6196;48.398;11.736;2023-09-12T09:45:48;29.80;99.90
12268;DHT22;6196;48.398;11.736;2023-09-12T09:48:23;29.70;99.90
12268;DHT22;6196;48.398;11.736;2023-09-12T09:51:00;30.40;99.90
12268;DHT22;6196;48.398;11.736;2023-09-12T09:53:29;30.40;99.90
12268;DHT22;6196;48.398;11.736;2023-09-12T09:56:15;29.80;99.90
12268;DHT22;6196;48.398;11.736;2023-09-12T09:58:56;30.40;99.90
12268;DHT22;6196;48.398;11.736;2023-09-12T10:01:27;30.80;99.90
12268;DHT22;6196;48.398;11.736;2023-09-12T10:03:59;31.40;99.90
12268;DHT22;6196;48.398;11.736;2023-09-12T10:06:28;31.50;99.90
12268;DHT22;6196;48.398;11.736;2023-09-12T10:08:56;31.30;99.90
12268;DHT22;6196;48.398;11.736;2023-09-12T10:11:28;31.30;99.90
12268;DHT22;6196;48.398;11.736;2023-09-12T10:14:00;31.20;99.90
12268;DHT22;6196;48.398;11.736;2023-09-12T10:16:32;31.30;99.90
12268;DHT22;6196;48.398;11.736;2023-09-12T10:19:17;31.40;99.90
12268;DHT22;6196;48.398;11.736;2023-09-12T10:24:45;31.30;99.90
12268;DHT22;6196;48.398;11.736;2023-09-12T10:27:13;31.20;99.90
12268;DHT22;6196;48.398;11.736;2023-09-12T10:29:41;31.40;99.90
12268;DHT22;6196;48.398;11.736;2023-09-12T10:32:09;31.50;99.90
12268;DHT22;6196;48.398;11.736;2023-09-12T10:34:37;31.40;99.90
12268;DHT22;6196;48.398;11.736;2023-09-12T10:37:05;31.50;99.90
12268;DHT22;6196;48.398;11.736;2023-09-12T10:39:34;31.80;99.90
12268;DHT22;6196;48.398;11.736;2023-09-12T10:42:04;32.10;99.90
12268;DHT22;6196;48.398;11.736;2023-09-12T10:44:32;32.40;99.90
12268;DHT22;6196;48.398;11.736;2023-09-12T10:47:01;32.80;99.90
12268;DHT22;6196;48.398;11.736;2023-09-12T10:49:31;32.80;99.90
12268;DHT22;6196;48.398;11.736;2023-09-12T10:51:58;32.50;99.90
12268;DHT22;6196;48.398;11.736;2023-09-12T10:54:37;32.60;99.90
12268;DHT22;6196;48.398;11.736;2023-09-12T10:57:05;33.10;99.90
12268;DHT22;6196;48.398;11.736;2023-09-12T10:59:34;33.20;99.90
12268;DHT22;6196;48.398;11.736;2023-09-12T11:02:32;33.20;99.90
12268;DHT22;6196;48.398;11.736;2023-09-12T11:05:03;33.50;99.90
12268;DHT22;6196;48.398;11.736;2023-09-12T11:12:49;32.80;99.90
12268;DHT22;6196;48.398;11.736;2023-09-12T11:15:22;32.90;99.90
12268;DHT22;6196;48.398;11.736;2023-09-12T11:18:03;33.20;99.90
12268;DHT22;6196;48.398;11.736;2023-09-12T11:20:51;33.60;99.90
12268;DHT22;6196;48.398;11.736;2023-09-12T11:23:20;33.80;99.90
12268;DHT22;6196;48.398;11.736;2023-09-12T11:25:48;33.70;97.90
12268;DHT22;6196;48.398;11.736;2023-09-12T11:28:16;33.00;99.40
12268;DHT22;6196;48.398;11.736;2023-09-12T11:30:56;33.40;99.70
12268;DHT22;6196;48.398;11.736;2023-09-12T11:33:25;33.60;98.60
12268;DHT22;6196;48.398;11.736;2023-09-12T11:35:54;34.10;98.40
12268;DHT22;6196;48.398;11.736;2023-09-12T11:38:29;34.60;98.20
12268;DHT22;6196;48.398;11.736;2023-09-12T11:41:00;34.80;96.90
12268;DHT22;6196;48.398;11.736;2023-09-12T11:43:28;34.70;96.90
12268;DHT22;6196;48.398;11.736;2023-09-12T11:45:56;34.80;95.90
12268;DHT22;6196;48.398;11.736;2023-09-12T11:48:24;35.00;95.30
12268;DHT22;6196;48.398;11.736;2023-09-12T11:50:55;34.80;95.30
12268;DHT22;6196;48.398;11.736;2023-09-12T11:53:27;34.70;94.80
12268;DHT22;6196;48.398;11.736;2023-09-12T11:55:58;34.80;95.30
12268;DHT22;6196;48.398;11.736;2023-09-12T11:58:26;34.90;96.30
12268;DHT22;6196;48.398;11.736;2023-09-12T12:00:58;34.80;96.50
12268;DHT22;6196;48.398;11.736;2023-09-12T12:03:27;34.40;95.60
12268;DHT22;6196;48.398;11.736;2023-09-12T12:05:56;34.90;95.80
12268;DHT22;6196;48.398;11.736;2023-09-12T12:08:23;35.30;93.80
12268;DHT22;6196;48.398;11.736;2023-09-12T12:10:58;34.90;94.50
12268;DHT22;6196;48.398;11.736;2023-09-12T12:13:26;33.90;94.70
12268;DHT22;6196;48.398;11.736;2023-09-12T12:15:57;34.40;95.30
12268;DHT22;6196;48.398;11.736;2023-09-12T12:18:25;34.50;94.70
12268;DHT22;6196;48.398;11.736;2023-09-12T12:20:53;34.70;94.40
12268;DHT22;6196;48.398;11.736;2023-09-12T12:23:20;34.30;93.90
12268;DHT22;6196;48.398;11.736;2023-09-12T12:25:47;34.60;94.10
12268;DHT22;6196;48.398;11.736;2023-09-12T12:28:16;34.70;93.80
12268;DHT22;6196;48.398;11.736;2023-09-12T12:30:43;34.90;93.40
12268;DHT22;6196;48.398;11.736;2023-09-12T12:33:10;35.40;93.40
12268;DHT22;6196;48.398;11.736;2023-09-12T12:36:01;36.30;92.30
12268;DHT22;6196;48.398;11.736;2023-09-12T12:38:34;36.50;91.40
12268;DHT22;6196;48.398;11.736;2023-09-12T12:41:08;37.20;91.00
12268;DHT22;6196;48.398;11.736;2023-09-12T12:43:35;37.80;90.80
12268;DHT22;6196;48.398;11.736;2023-09-12T12:46:02;38.10;90.00
12268;DHT22;6196;48.398;11.736;2023-09-12T12:48:35;37.90;89.60
12268;DHT22;6196;48.398;11.736;2023-09-12T12:51:22;38.00;86.80
12268;DHT22;6196;48.398;11.736;2023-09-12T12:54:02;38.50;85.00
12268;DHT22;6196;48.398;11.736;2023-09-12T12:56:30;38.60;82.60
12268;DHT22;6196;48.398;11.736;2023-09-12T12:58:59;38.90;82.30
12268;DHT22;6196;48.398;11.736;2023-09-12T13:01:30;39.20;84.60
12268;DHT22;6196;48.398;11.736;2023-09-12T13:03:57;39.50;80.60
12268;DHT22;6196;48.398;11.736;2023-09-12T13:06:24;40.00;78.60
12268;DHT22;6196;48.398;11.736;2023-09-12T13:08:54;40.40;76.30
12268;DHT22;6196;48.398;11.736;2023-09-12T13:11:23;41.30;76.10
12268;DHT22;6196;48.398;11.736;2023-09-12T13:13:52;40.60;78.60
12268;DHT22;6196;48.398;11.736;2023-09-12T13:16:19;40.50;78.40
12268;DHT22;6196;48.398;11.736;2023-09-12T13:18:46;40.70;76.80
12268;DHT22;6196;48.398;11.736;2023-09-12T13:21:13;41.10;74.80
12268;DHT22;6196;48.398;11.736;2023-09-12T13:23:40;41.30;74.50
12268;DHT22;6196;48.398;11.736;2023-09-12T13:26:09;41.10;70.90
12268;DHT22;6196;48.398;11.736;2023-09-12T13:28:37;40.50;71.90
12268;DHT22;6196;48.398;11.736;2023-09-12T13:31:04;40.30;71.00
12268;DHT22;6196;48.398;11.736;2023-09-12T13:33:31;40.50;71.90
12268;DHT22;6196;48.398;11.736;2023-09-12T13:35:58;41.10;68.30
12268;DHT22;6196;48.398;11.736;2023-09-12T13:38:25;41.50;70.10
12268;DHT22;6196;48.398;11.736;2023-09-12T13:40:52;42.40;69.10
12268;DHT22;6196;48.398;11.736;2023-09-12T13:43:19;42.90;66.40
12268;DHT22;6196;48.398;11.736;2023-09-12T13:45:46;43.70;63.40
12268;DHT22;6196;48.398;11.736;2023-09-12T13:48:13;44.20;61.00
12268;DHT22;6196;48.398;11.736;2023-09-12T13:50:41;43.60;61.10
12268;DHT22;6196;48.398;11.736;2023-09-12T13:53:11;43.90;59.00
12268;DHT22;6196;48.398;11.736;2023-09-12T13:55:38;43.10;59.50
12268;DHT22;6196;48.398;11.736;2023-09-12T13:58:06;43.20;61.60
12268;DHT22;6196;48.398;11.736;2023-09-12T14:00:35;44.00;59.70
12268;DHT22;6196;48.398;11.736;2023-09-12T14:03:03;44.40;60.40
12268;DHT22;6196;48.398;11.736;2023-09-12T14:05:31;44.40;58.30
12268;DHT22;6196;48.398;11.736;2023-09-12T14:07:59;44.60;58.00
12268;DHT22;6196;48.398;11.736;2023-09-12T14:10:26;44.00;57.10
12268;DHT22;6196;48.398;11.736;2023-09-12T14:13:03;44.50;56.20
12268;DHT22;6196;48.398;11.736;2023-09-12T14:15:47;43.70;60.60
12268;DHT22;6196;48.398;11.736;2023-09-12T14:18:17;43.80;58.30
12268;DHT22;6196;48.398;11.736;2023-09-12T14:20:45;44.40;59.00
12268;DHT22;6196;48.398;11.736;2023-09-12T14:23:15;44.50;56.30
12268;DHT22;6196;48.398;11.736;2023-09-12T14:25:43;44.30;56.70
12268;DHT22;6196;48.398;11.736;2023-09-12T14:28:12;43.60;58.20
12268;DHT22;6196;48.398;11.736;2023-09-12T14:30:41;43.20;57.50
12268;DHT22;6196;48.398;11.736;2023-09-12T14:33:12;43.60;57.10
12268;DHT22;6196;48.398;11.736;2023-09-12T14:35:44;43.40;57.60
12268;DHT22;6196;48.398;11.736;2023-09-12T14:38:11;43.50;57.50
12268;DHT22;6196;48.398;11.736;2023-09-12T14:40:38;43.80;56.20
12268;DHT22;6196;48.398;11.736;2023-09-12T14:43:10;44.20;55.20
12268;DHT22;6196;48.398;11.736;2023-09-12T14:45:37;44.90;55.60
12268;DHT22;6196;48.398;11.736;2023-09-12T14:48:05;44.30;55.40
12268;DHT22;6196;48.398;11.736;2023-09-12T14:50:34;43.60;55.80
12268;DHT22;6196;48.398;11.736;2023-09-12T14:53:08;42.40;57.50
12268;DHT22;6196;48.398;11.736;2023-09-12T14:55:36;41.10;59.90
12268;DHT22;6196;48.398;11.736;2023-09-12T14:58:03;40.10;61.30
12268;DHT22;6196;48.398;11.736;2023-09-12T15:00:30;39.50;62.30
12268;DHT22;6196;48.398;11.736;2023-09-12T15:03:00;38.80;64.30
12268;DHT22;6196;48.398;11.736;2023-09-12T15:05:27;39.10;62.90
12268;DHT22;6196;48.398;11.736;2023-09-12T15:07:54;39.20;62.40
12268;DHT22;6196;48.398;11.736;2023-09-12T15:10:22;39.30;63.40
12268;DHT22;6196;48.398;11.736;2023-09-12T15:12:48;39.80;63.30
12268;DHT22;6196;48.398;11.736;2023-09-12T15:15:16;40.90;62.40
12268;DHT22;6196;48.398;11.736;2023-09-12T15:17:43;41.00;61.40
12268;DHT22;6196;48.398;11.736;2023-09-12T15:20:10;41.40;61.70
12268;DHT22;6196;48.398;11.736;2023-09-12T15:22:37;41.30;59.20
12268;DHT22;6196;48.398;11.736;2023-09-12T15:25:05;40.10;60.00
12268;DHT22;6196;48.398;11.736;2023-09-12T15:27:32;38.20;62.60
12268;DHT22;6196;48.398;11.736;2023-09-12T15:30:03;36.40;68.00
12268;DHT22;6196;48.398;11.736;2023-09-12T15:32:32;35.00;70.70
12268;DHT22;6196;48.398;11.736;2023-09-12T15:34:59;33.70;71.90
12268;DHT22;6196;48.398;11.736;2023-09-12T15:37:29;32.70;74.50
12268;DHT22;6196;48.398;11.736;2023-09-12T15:39:56;32.20;76.90
12268;DHT22;6196;48.398;11.736;2023-09-12T15:42:24;31.90;78.30
12268;DHT22;6196;48.398;11.736;2023-09-12T15:45:03;31.40;80.40
12268;DHT22;6196;48.398;11.736;2023-09-12T15:47:35;31.00;80.80
12268;DHT22;6196;48.398;11.736;2023-09-12T15:50:03;30.60;82.10
12268;DHT22;6196;48.398;11.736;2023-09-12T15:52:31;30.40;82.70
12268;DHT22;6196;48.398;11.736;2023-09-12T15:55:08;30.20;83.60
12268;DHT22;6196;48.398;11.736;2023-09-12T15:57:37;29.90;86.10